sensor_id;sensor_type;location;lat;lon;timestamp;pressure;altitude;pressure_sealevel;temperature
29423;BMP180;16399;51.686;8.684;2023-04-06T00:01:51;100205.00;;;3.10
29423;BMP180;16399;51.686;8.684;2023-04-06T00:04:54;100210.00;;;3.10
29423;BMP180;16399;51.686;8.684;2023-04-06T00:07:58;100207.00;;;3.10
29423;BMP180;16399;51.686;8.684;2023-04-06T00:11:00;100199.00;;;3.10
29423;BMP180;16399;51.686;8.684;2023-04-06T00:14:02;100189.00;;;3.10
29423;BMP180;16399;51.686;8.684;2023-04-06T00:17:05;100200.00;;;3.10
29423;BMP180;16399;51.686;8.684;2023-04-06T00:20:08;100180.00;;;3.10
29423;BMP180;16399;51.686;8.684;2023-04-06T00:23:10;100185.00;;;3.10
29423;BMP180;16399;51.686;8.684;2023-04-06T00:26:13;100195.00;;;3.10
29423;BMP180;16399;51.686;8.684;2023-04-06T00:29:15;100186.00;;;3.10
29423;BMP180;16399;51.686;8.684;2023-04-06T00:32:17;100179.00;;;3.10
29423;BMP180;16399;51.686;8.684;2023-04-06T00:35:20;100169.00;;;3.10
29423;BMP180;16399;51.686;8.684;2023-04-06T00:38:22;100169.00;;;3.00
29423;BMP180;16399;51.686;8.684;2023-04-06T00:41:24;100171.00;;;3.00
29423;BMP180;16399;51.686;8.684;2023-04-06T00:44:27;100167.00;;;3.00
29423;BMP180;16399;51.686;8.684;2023-04-06T00:47:29;100164.00;;;2.90
29423;BMP180;16399;51.686;8.684;2023-04-06T00:50:32;100169.00;;;2.90
29423;BMP180;16399;51.686;8.684;2023-04-06T00:53:34;100159.00;;;2.90
29423;BMP180;16399;51.686;8.684;2023-04-06T00:56:37;100151.00;;;2.80
29423;BMP180;16399;51.686;8.684;2023-04-06T00:59:39;100153.00;;;2.80
29423;BMP180;16399;51.686;8.684;2023-04-06T01:02:42;100156.00;;;2.80
29423;BMP180;16399;51.686;8.684;2023-04-06T01:05:46;100144.00;;;2.80
29423;BMP180;16399;51.686;8.684;2023-04-06T01:08:48;100151.00;;;2.80
29423;BMP180;16399;51.686;8.684;2023-04-06T01:11:51;100138.00;;;2.70
29423;BMP180;16399;51.686;8.684;2023-04-06T01:14:53;100142.00;;;2.70
29423;BMP180;16399;51.686;8.684;2023-04-06T01:17:55;100144.00;;;2.70
29423;BMP180;16399;51.686;8.684;2023-04-06T01:20:58;100140.00;;;2.70
29423;BMP180;16399;51.686;8.684;2023-04-06T01:24:00;100134.00;;;2.60
29423;BMP180;16399;51.686;8.684;2023-04-06T01:27:03;100139.00;;;2.60
29423;BMP180;16399;51.686;8.684;2023-04-06T01:30:06;100136.00;;;2.60
29423;BMP180;16399;51.686;8.684;2023-04-06T01:33:09;100129.00;;;2.60
29423;BMP180;16399;51.686;8.684;2023-04-06T01:36:11;100130.00;;;2.50
29423;BMP180;16399;51.686;8.684;2023-04-06T01:39:13;100129.00;;;2.50
29423;BMP180;16399;51.686;8.684;2023-04-06T01:42:16;100117.00;;;2.50
29423;BMP180;16399;51.686;8.684;2023-04-06T01:45:18;100110.00;;;2.50
29423;BMP180;16399;51.686;8.684;2023-04-06T01:48:20;100119.00;;;2.40
29423;BMP180;16399;51.686;8.684;2023-04-06T01:51:23;100114.00;;;2.40
29423;BMP180;16399;51.686;8.684;2023-04-06T01:54:26;100111.00;;;2.40
29423;BMP180;16399;51.686;8.684;2023-04-06T01:57:28;100097.00;;;2.40
29423;BMP180;16399;51.686;8.684;2023-04-06T02:00:30;100106.00;;;2.30
29423;BMP180;16399;51.686;8.684;2023-04-06T02:03:33;100103.00;;;2.30
29423;BMP180;16399;51.686;8.684;2023-04-06T02:06:35;100094.00;;;2.30
29423;BMP180;16399;51.686;8.684;2023-04-06T02:09:37;100099.00;;;2.30
29423;BMP180;16399;51.686;8.684;2023-04-06T02:12:40;100092.00;;;2.30
29423;BMP180;16399;51.686;8.684;2023-04-06T02:15:42;100088.00;;;2.30
29423;BMP180;16399;51.686;8.684;2023-04-06T02:18:44;100098.00;;;2.30
29423;BMP180;16399;51.686;8.684;2023-04-06T02:21:47;100103.00;;;2.30
29423;BMP180;16399;51.686;8.684;2023-04-06T02:24:49;100096.00;;;2.30
29423;BMP180;16399;51.686;8.684;2023-04-06T02:27:51;100107.00;;;2.20
29423;BMP180;16399;51.686;8.684;2023-04-06T02:30:54;100095.00;;;2.20
29423;BMP180;16399;51.686;8.684;2023-04-06T02:33:57;100092.00;;;2.20
29423;BMP180;16399;51.686;8.684;2023-04-06T02:36:59;100108.00;;;2.20
29423;BMP180;16399;51.686;8.684;2023-04-06T02:40:02;100093.00;;;2.10
29423;BMP180;16399;51.686;8.684;2023-04-06T02:43:04;100095.00;;;2.10
29423;BMP180;16399;51.686;8.684;2023-04-06T02:46:06;100094.00;;;2.10
29423;BMP180;16399;51.686;8.684;2023-04-06T02:49:09;100086.00;;;2.10
29423;BMP180;16399;51.686;8.684;2023-04-06T02:52:11;100104.00;;;2.00
29423;BMP180;16399;51.686;8.684;2023-04-06T02:55:13;100060.00;;;2.00
29423;BMP180;16399;51.686;8.684;2023-04-06T02:58:16;100103.00;;;2.00
29423;BMP180;16399;51.686;8.684;2023-04-06T03:01:18;100106.00;;;2.00
29423;BMP180;16399;51.686;8.684;2023-04-06T03:04:20;100100.00;;;2.00
29423;BMP180;16399;51.686;8.684;2023-04-06T03:07:24;100102.00;;;2.00
29423;BMP180;16399;51.686;8.684;2023-04-06T03:10:27;100101.00;;;2.00
29423;BMP180;16399;51.686;8.684;2023-04-06T03:13:29;100096.00;;;2.00
29423;BMP180;16399;51.686;8.684;2023-04-06T03:16:31;100080.00;;;2.00
29423;BMP180;16399;51.686;8.684;2023-04-06T03:19:33;100097.00;;;2.10
29423;BMP180;16399;51.686;8.684;2023-04-06T03:22:36;100087.00;;;2.10
29423;BMP180;16399;51.686;8.684;2023-04-06T03:25:38;100084.00;;;2.10
29423;BMP180;16399;51.686;8.684;2023-04-06T03:28:41;100092.00;;;2.10
29423;BMP180;16399;51.686;8.684;2023-04-06T03:31:43;100084.00;;;2.20
29423;BMP180;16399;51.686;8.684;2023-04-06T03:34:46;100099.00;;;2.20
29423;BMP180;16399;51.686;8.684;2023-04-06T03:37:48;100097.00;;;2.20
29423;BMP180;16399;51.686;8.684;2023-04-06T03:40:50;100087.00;;;2.20
29423;BMP180;16399;51.686;8.684;2023-04-06T03:43:53;100092.00;;;2.20
29423;BMP180;16399;51.686;8.684;2023-04-06T03:46:55;100098.00;;;2.20
29423;BMP180;16399;51.686;8.684;2023-04-06T03:49:57;100096.00;;;2.20
29423;BMP180;16399;51.686;8.684;2023-04-06T03:53:00;100093.00;;;2.20
29423;BMP180;16399;51.686;8.684;2023-04-06T03:56:04;100096.00;;;2.10
29423;BMP180;16399;51.686;8.684;2023-04-06T03:59:07;100105.00;;;2.10
29423;BMP180;16399;51.686;8.684;2023-04-06T04:02:09;100102.00;;;2.10
29423;BMP180;16399;51.686;8.684;2023-04-06T04:05:11;100103.00;;;2.00
29423;BMP180;16399;51.686;8.684;2023-04-06T04:08:13;100104.00;;;1.90
29423;BMP180;16399;51.686;8.684;2023-04-06T04:11:16;100105.00;;;1.90
29423;BMP180;16399;51.686;8.684;2023-04-06T04:14:18;100106.00;;;1.90
29423;BMP180;16399;51.686;8.684;2023-04-06T04:17:22;100107.00;;;1.80
29423;BMP180;16399;51.686;8.684;2023-04-06T04:20:24;100104.00;;;1.80
29423;BMP180;16399;51.686;8.684;2023-04-06T04:23:26;100096.00;;;1.80
29423;BMP180;16399;51.686;8.684;2023-04-06T04:26:28;100100.00;;;1.80
29423;BMP180;16399;51.686;8.684;2023-04-06T04:29:31;100105.00;;;1.70
29423;BMP180;16399;51.686;8.684;2023-04-06T04:32:33;100104.00;;;1.70
29423;BMP180;16399;51.686;8.684;2023-04-06T04:35:35;100104.00;;;1.70
29423;BMP180;16399;51.686;8.684;2023-04-06T04:38:38;100097.00;;;1.70
29423;BMP180;16399;51.686;8.684;2023-04-06T04:41:40;100099.00;;;1.80
29423;BMP180;16399;51.686;8.684;2023-04-06T04:44:42;100101.00;;;1.80
29423;BMP180;16399;51.686;8.684;2023-04-06T04:47:45;100090.00;;;1.80
29423;BMP180;16399;51.686;8.684;2023-04-06T04:50:47;100099.00;;;1.80
29423;BMP180;16399;51.686;8.684;2023-04-06T04:53:49;100107.00;;;1.80
29423;BMP180;16399;51.686;8.684;2023-04-06T04:56:51;100100.00;;;1.80
29423;BMP180;16399;51.686;8.684;2023-04-06T04:59:54;100099.00;;;1.80
29423;BMP180;16399;51.686;8.684;2023-04-06T05:02:56;100095.00;;;1.80
29423;BMP180;16399;51.686;8.684;2023-04-06T05:05:58;100092.00;;;1.90
29423;BMP180;16399;51.686;8.684;2023-04-06T05:09:01;100096.00;;;1.90
29423;BMP180;16399;51.686;8.684;2023-04-06T05:12:03;100100.00;;;2.00
29423;BMP180;16399;51.686;8.684;2023-04-06T05:15:06;100092.00;;;2.00
29423;BMP180;16399;51.686;8.684;2023-04-06T05:18:09;100083.00;;;2.10
29423;BMP180;16399;51.686;8.684;2023-04-06T05:21:12;100091.00;;;2.20
29423;BMP180;16399;51.686;8.684;2023-04-06T05:24:14;100090.00;;;2.30
29423;BMP180;16399;51.686;8.684;2023-04-06T05:27:16;100094.00;;;2.50
29423;BMP180;16399;51.686;8.684;2023-04-06T05:30:19;100077.00;;;2.60
29423;BMP180;16399;51.686;8.684;2023-04-06T05:33:21;100084.00;;;2.70
29423;BMP180;16399;51.686;8.684;2023-04-06T05:36:24;100077.00;;;2.80
29423;BMP180;16399;51.686;8.684;2023-04-06T05:39:26;100088.00;;;2.90
29423;BMP180;16399;51.686;8.684;2023-04-06T05:42:35;100091.00;;;3.00
29423;BMP180;16399;51.686;8.684;2023-04-06T05:45:32;100076.00;;;3.10
29423;BMP180;16399;51.686;8.684;2023-04-06T05:48:34;100076.00;;;3.20
29423;BMP180;16399;51.686;8.684;2023-04-06T05:51:37;100066.00;;;3.40
29423;BMP180;16399;51.686;8.684;2023-04-06T05:54:39;100074.00;;;3.50
29423;BMP180;16399;51.686;8.684;2023-04-06T05:57:41;100058.00;;;3.70
29423;BMP180;16399;51.686;8.684;2023-04-06T06:00:43;100060.00;;;3.90
29423;BMP180;16399;51.686;8.684;2023-04-06T06:03:47;100068.00;;;4.00
29423;BMP180;16399;51.686;8.684;2023-04-06T06:06:49;100070.00;;;4.10
29423;BMP180;16399;51.686;8.684;2023-04-06T06:09:51;100065.00;;;4.20
29423;BMP180;16399;51.686;8.684;2023-04-06T06:12:53;100054.00;;;4.40
29423;BMP180;16399;51.686;8.684;2023-04-06T06:15:56;100058.00;;;4.40
29423;BMP180;16399;51.686;8.684;2023-04-06T06:18:58;100057.00;;;4.60
29423;BMP180;16399;51.686;8.684;2023-04-06T06:22:01;100058.00;;;4.60
29423;BMP180;16399;51.686;8.684;2023-04-06T06:25:04;100052.00;;;4.70
29423;BMP180;16399;51.686;8.684;2023-04-06T06:28:06;100052.00;;;4.80
29423;BMP180;16399;51.686;8.684;2023-04-06T06:31:08;100060.00;;;4.90
29423;BMP180;16399;51.686;8.684;2023-04-06T06:34:11;100049.00;;;5.10
29423;BMP180;16399;51.686;8.684;2023-04-06T06:37:14;100056.00;;;5.20
29423;BMP180;16399;51.686;8.684;2023-04-06T06:40:16;100061.00;;;5.30
29423;BMP180;16399;51.686;8.684;2023-04-06T06:43:19;100058.00;;;5.40
29423;BMP180;16399;51.686;8.684;2023-04-06T06:46:21;100054.00;;;5.60
29423;BMP180;16399;51.686;8.684;2023-04-06T06:49:23;100054.00;;;5.80
29423;BMP180;16399;51.686;8.684;2023-04-06T06:52:26;100036.00;;;5.90
29423;BMP180;16399;51.686;8.684;2023-04-06T06:55:29;100043.00;;;6.10
29423;BMP180;16399;51.686;8.684;2023-04-06T06:58:32;100043.00;;;6.30
29423;BMP180;16399;51.686;8.684;2023-04-06T07:01:34;100029.00;;;6.40
29423;BMP180;16399;51.686;8.684;2023-04-06T07:04:36;100039.00;;;6.60
29423;BMP180;16399;51.686;8.684;2023-04-06T07:07:39;100040.00;;;6.80
29423;BMP180;16399;51.686;8.684;2023-04-06T07:10:41;100025.00;;;7.00
29423;BMP180;16399;51.686;8.684;2023-04-06T07:13:43;100031.00;;;7.20
29423;BMP180;16399;51.686;8.684;2023-04-06T07:16:46;100029.00;;;7.30
29423;BMP180;16399;51.686;8.684;2023-04-06T07:19:50;100023.00;;;7.50
29423;BMP180;16399;51.686;8.684;2023-04-06T07:22:52;100032.00;;;7.60
29423;BMP180;16399;51.686;8.684;2023-04-06T07:25:54;100024.00;;;7.80
29423;BMP180;16399;51.686;8.684;2023-04-06T07:28:56;100024.00;;;7.90
29423;BMP180;16399;51.686;8.684;2023-04-06T07:31:59;100024.00;;;8.10
29423;BMP180;16399;51.686;8.684;2023-04-06T07:35:01;100019.00;;;8.30
29423;BMP180;16399;51.686;8.684;2023-04-06T07:38:04;100014.00;;;8.40
29423;BMP180;16399;51.686;8.684;2023-04-06T07:41:06;100016.00;;;8.60
29423;BMP180;16399;51.686;8.684;2023-04-06T07:44:08;100020.00;;;8.80
29423;BMP180;16399;51.686;8.684;2023-04-06T07:47:11;100014.00;;;8.90
29423;BMP180;16399;51.686;8.684;2023-04-06T07:50:13;100012.00;;;9.10
29423;BMP180;16399;51.686;8.684;2023-04-06T07:53:15;99997.00;;;9.20
29423;BMP180;16399;51.686;8.684;2023-04-06T07:56:18;100004.00;;;9.40
29423;BMP180;16399;51.686;8.684;2023-04-06T07:59:20;100005.00;;;9.60
29423;BMP180;16399;51.686;8.684;2023-04-06T08:02:22;99995.00;;;9.80
29423;BMP180;16399;51.686;8.684;2023-04-06T08:05:25;99996.00;;;10.00
29423;BMP180;16399;51.686;8.684;2023-04-06T08:08:27;99987.00;;;10.20
29423;BMP180;16399;51.686;8.684;2023-04-06T08:11:29;99990.00;;;10.40
29423;BMP180;16399;51.686;8.684;2023-04-06T08:14:32;99990.00;;;10.60
29423;BMP180;16399;51.686;8.684;2023-04-06T08:17:34;99991.00;;;10.90
29423;BMP180;16399;51.686;8.684;2023-04-06T08:20:36;99988.00;;;11.10
29423;BMP180;16399;51.686;8.684;2023-04-06T08:23:39;99997.00;;;11.40
29423;BMP180;16399;51.686;8.684;2023-04-06T08:26:41;99980.00;;;11.50
29423;BMP180;16399;51.686;8.684;2023-04-06T08:29:43;99981.00;;;11.70
29423;BMP180;16399;51.686;8.684;2023-04-06T08:32:46;99985.00;;;11.70
29423;BMP180;16399;51.686;8.684;2023-04-06T08:35:48;99988.00;;;11.90
29423;BMP180;16399;51.686;8.684;2023-04-06T08:38:51;99997.00;;;12.00
29423;BMP180;16399;51.686;8.684;2023-04-06T08:41:55;99977.00;;;12.20
29423;BMP180;16399;51.686;8.684;2023-04-06T08:45:01;99987.00;;;12.40
29423;BMP180;16399;51.686;8.684;2023-04-06T08:48:05;99975.00;;;12.50
29423;BMP180;16399;51.686;8.684;2023-04-06T08:51:11;99975.00;;;12.60
29423;BMP180;16399;51.686;8.684;2023-04-06T08:54:14;99973.00;;;12.60
29423;BMP180;16399;51.686;8.684;2023-04-06T08:57:17;99965.00;;;12.70
29423;BMP180;16399;51.686;8.684;2023-04-06T09:00:21;99965.00;;;12.80
29423;BMP180;16399;51.686;8.684;2023-04-06T09:03:26;99968.00;;;13.00
29423;BMP180;16399;51.686;8.684;2023-04-06T09:06:28;99953.00;;;12.90
29423;BMP180;16399;51.686;8.684;2023-04-06T09:09:31;99962.00;;;12.90
29423;BMP180;16399;51.686;8.684;2023-04-06T09:12:34;99964.00;;;13.10
29423;BMP180;16399;51.686;8.684;2023-04-06T09:15:37;99967.00;;;13.20
29423;BMP180;16399;51.686;8.684;2023-04-06T09:18:39;99961.00;;;13.20
29423;BMP180;16399;51.686;8.684;2023-04-06T09:21:42;99959.00;;;13.30
29423;BMP180;16399;51.686;8.684;2023-04-06T09:24:47;99967.00;;;13.40
29423;BMP180;16399;51.686;8.684;2023-04-06T09:28:00;99958.00;;;13.50
29423;BMP180;16399;51.686;8.684;2023-04-06T09:31:03;99947.00;;;13.60
29423;BMP180;16399;51.686;8.684;2023-04-06T09:34:05;99948.00;;;13.70
29423;BMP180;16399;51.686;8.684;2023-04-06T09:37:15;99956.00;;;13.80
29423;BMP180;16399;51.686;8.684;2023-04-06T09:40:18;99953.00;;;14.00
29423;BMP180;16399;51.686;8.684;2023-04-06T09:43:27;99953.00;;;13.90
29423;BMP180;16399;51.686;8.684;2023-04-06T09:46:36;99938.00;;;14.10
29423;BMP180;16399;51.686;8.684;2023-04-06T09:49:35;99945.00;;;14.00
29423;BMP180;16399;51.686;8.684;2023-04-06T09:52:46;99944.00;;;14.10
29423;BMP180;16399;51.686;8.684;2023-04-06T09:55:46;99941.00;;;14.00
29423;BMP180;16399;51.686;8.684;2023-04-06T09:58:50;99945.00;;;13.90
29423;BMP180;16399;51.686;8.684;2023-04-06T10:01:55;99940.00;;;14.00
29423;BMP180;16399;51.686;8.684;2023-04-06T10:05:08;99942.00;;;14.10
29423;BMP180;16399;51.686;8.684;2023-04-06T10:08:09;99905.00;;;14.10
29423;BMP180;16399;51.686;8.684;2023-04-06T10:11:11;99939.00;;;14.30
29423;BMP180;16399;51.686;8.684;2023-04-06T10:14:14;99927.00;;;14.40
29423;BMP180;16399;51.686;8.684;2023-04-06T10:17:17;99937.00;;;14.70
29423;BMP180;16399;51.686;8.684;2023-04-06T10:23:51;99936.00;;;15.20
29423;BMP180;16399;51.686;8.684;2023-04-06T10:27:03;99936.00;;;15.20
29423;BMP180;16399;51.686;8.684;2023-04-06T10:30:06;99931.00;;;15.10
29423;BMP180;16399;51.686;8.684;2023-04-06T10:33:14;99910.00;;;15.10
29423;BMP180;16399;51.686;8.684;2023-04-06T10:36:25;99938.00;;;14.90
29423;BMP180;16399;51.686;8.684;2023-04-06T10:39:27;99933.00;;;14.70
29423;BMP180;16399;51.686;8.684;2023-04-06T10:42:39;99935.00;;;14.80
29423;BMP180;16399;51.686;8.684;2023-04-06T10:45:41;99931.00;;;14.90
29423;BMP180;16399;51.686;8.684;2023-04-06T10:48:45;99916.00;;;14.90
29423;BMP180;16399;51.686;8.684;2023-04-06T10:51:55;99917.00;;;15.20
29423;BMP180;16399;51.686;8.684;2023-04-06T10:54:58;99927.00;;;15.40
29423;BMP180;16399;51.686;8.684;2023-04-06T10:58:00;99922.00;;;15.50
29423;BMP180;16399;51.686;8.684;2023-04-06T11:01:03;99906.00;;;15.70
29423;BMP180;16399;51.686;8.684;2023-04-06T11:04:05;99915.00;;;15.80
29423;BMP180;16399;51.686;8.684;2023-04-06T11:07:09;99908.00;;;15.80
29423;BMP180;16399;51.686;8.684;2023-04-06T11:10:12;99908.00;;;15.80
29423;BMP180;16399;51.686;8.684;2023-04-06T11:13:16;99906.00;;;15.80
29423;BMP180;16399;51.686;8.684;2023-04-06T11:16:25;99901.00;;;16.00
29423;BMP180;16399;51.686;8.684;2023-04-06T11:19:28;99909.00;;;16.20
29423;BMP180;16399;51.686;8.684;2023-04-06T11:22:31;99913.00;;;16.20
29423;BMP180;16399;51.686;8.684;2023-04-06T11:25:33;99905.00;;;16.10
29423;BMP180;16399;51.686;8.684;2023-04-06T11:28:36;99899.00;;;16.10
29423;BMP180;16399;51.686;8.684;2023-04-06T11:31:44;99898.00;;;15.90
29423;BMP180;16399;51.686;8.684;2023-04-06T11:34:47;99891.00;;;15.80
29423;BMP180;16399;51.686;8.684;2023-04-06T11:37:50;99899.00;;;15.90
29423;BMP180;16399;51.686;8.684;2023-04-06T11:40:53;99891.00;;;16.00
29423;BMP180;16399;51.686;8.684;2023-04-06T11:43:56;99890.00;;;16.10
29423;BMP180;16399;51.686;8.684;2023-04-06T11:46:58;99868.00;;;16.10
29423;BMP180;16399;51.686;8.684;2023-04-06T11:50:08;99887.00;;;16.20
29423;BMP180;16399;51.686;8.684;2023-04-06T11:53:11;99886.00;;;16.30
29423;BMP180;16399;51.686;8.684;2023-04-06T11:56:24;99881.00;;;16.30
29423;BMP180;16399;51.686;8.684;2023-04-06T11:59:27;99870.00;;;16.40
29423;BMP180;16399;51.686;8.684;2023-04-06T12:02:29;99876.00;;;16.50
29423;BMP180;16399;51.686;8.684;2023-04-06T12:05:33;99876.00;;;16.60
29423;BMP180;16399;51.686;8.684;2023-04-06T12:08:36;99871.00;;;16.60
29423;BMP180;16399;51.686;8.684;2023-04-06T12:11:38;99874.00;;;16.70
29423;BMP180;16399;51.686;8.684;2023-04-06T12:14:42;99876.00;;;16.70
29423;BMP180;16399;51.686;8.684;2023-04-06T12:17:44;99868.00;;;16.70
29423;BMP180;16399;51.686;8.684;2023-04-06T12:20:46;99875.00;;;16.70
29423;BMP180;16399;51.686;8.684;2023-04-06T12:23:48;99868.00;;;16.50
29423;BMP180;16399;51.686;8.684;2023-04-06T12:26:51;99862.00;;;16.60
29423;BMP180;16399;51.686;8.684;2023-04-06T12:29:53;99863.00;;;16.60
29423;BMP180;16399;51.686;8.684;2023-04-06T12:32:56;99864.00;;;16.80
29423;BMP180;16399;51.686;8.684;2023-04-06T12:35:59;99866.00;;;16.80
29423;BMP180;16399;51.686;8.684;2023-04-06T12:39:01;99855.00;;;16.90
29423;BMP180;16399;51.686;8.684;2023-04-06T12:42:04;99852.00;;;17.00
29423;BMP180;16399;51.686;8.684;2023-04-06T12:45:07;99859.00;;;17.20
29423;BMP180;16399;51.686;8.684;2023-04-06T12:48:10;99858.00;;;17.30
29423;BMP180;16399;51.686;8.684;2023-04-06T12:51:12;99854.00;;;17.20
29423;BMP180;16399;51.686;8.684;2023-04-06T12:54:15;99851.00;;;17.10
29423;BMP180;16399;51.686;8.684;2023-04-06T12:57:17;99847.00;;;17.10
29423;BMP180;16399;51.686;8.684;2023-04-06T13:00:20;99844.00;;;17.10
29423;BMP180;16399;51.686;8.684;2023-04-06T13:03:23;99839.00;;;17.00
29423;BMP180;16399;51.686;8.684;2023-04-06T13:06:25;99835.00;;;17.00
29423;BMP180;16399;51.686;8.684;2023-04-06T13:09:28;99842.00;;;17.20
29423;BMP180;16399;51.686;8.684;2023-04-06T13:12:31;99849.00;;;17.30
29423;BMP180;16399;51.686;8.684;2023-04-06T13:15:33;99839.00;;;17.20
29423;BMP180;16399;51.686;8.684;2023-04-06T13:18:37;99839.00;;;17.20
29423;BMP180;16399;51.686;8.684;2023-04-06T13:21:40;99844.00;;;17.30
29423;BMP180;16399;51.686;8.684;2023-04-06T13:24:42;99844.00;;;17.30
29423;BMP180;16399;51.686;8.684;2023-04-06T13:27:44;99843.00;;;17.20
29423;BMP180;16399;51.686;8.684;2023-04-06T13:30:48;99840.00;;;17.20
29423;BMP180;16399;51.686;8.684;2023-04-06T13:33:51;99837.00;;;17.10
29423;BMP180;16399;51.686;8.684;2023-04-06T13:36:53;99831.00;;;16.90
29423;BMP180;16399;51.686;8.684;2023-04-06T13:39:56;99828.00;;;17.10
29423;BMP180;16399;51.686;8.684;2023-04-06T13:42:58;99824.00;;;17.40
29423;BMP180;16399;51.686;8.684;2023-04-06T13:46:00;99817.00;;;17.50
29423;BMP180;16399;51.686;8.684;2023-04-06T13:49:03;99818.00;;;17.80
29423;BMP180;16399;51.686;8.684;2023-04-06T13:52:05;99824.00;;;17.90
29423;BMP180;16399;51.686;8.684;2023-04-06T13:55:07;99819.00;;;18.00
29423;BMP180;16399;51.686;8.684;2023-04-06T13:58:10;99807.00;;;18.00
29423;BMP180;16399;51.686;8.684;2023-04-06T14:01:12;99813.00;;;17.80
29423;BMP180;16399;51.686;8.684;2023-04-06T14:04:15;99813.00;;;17.80
29423;BMP180;16399;51.686;8.684;2023-04-06T14:07:17;99821.00;;;17.50
29423;BMP180;16399;51.686;8.684;2023-04-06T14:10:19;99823.00;;;17.20
29423;BMP180;16399;51.686;8.684;2023-04-06T14:13:23;99826.00;;;16.80
29423;BMP180;16399;51.686;8.684;2023-04-06T14:16:25;99825.00;;;16.40
29423;BMP180;16399;51.686;8.684;2023-04-06T14:19:28;99820.00;;;16.10
29423;BMP180;16399;51.686;8.684;2023-04-06T14:22:30;99811.00;;;15.90
29423;BMP180;16399;51.686;8.684;2023-04-06T14:25:32;99812.00;;;15.70
29423;BMP180;16399;51.686;8.684;2023-04-06T14:28:36;99823.00;;;15.60
29423;BMP180;16399;51.686;8.684;2023-04-06T14:31:39;99821.00;;;15.50
29423;BMP180;16399;51.686;8.684;2023-04-06T14:34:41;99821.00;;;15.50
29423;BMP180;16399;51.686;8.684;2023-04-06T14:37:43;99811.00;;;15.70
29423;BMP180;16399;51.686;8.684;2023-04-06T14:40:46;99808.00;;;16.00
29423;BMP180;16399;51.686;8.684;2023-04-06T14:43:48;99804.00;;;16.30
29423;BMP180;16399;51.686;8.684;2023-04-06T14:46:50;99803.00;;;16.50
29423;BMP180;16399;51.686;8.684;2023-04-06T14:49:53;99801.00;;;16.70
29423;BMP180;16399;51.686;8.684;2023-04-06T14:52:55;99791.00;;;17.00
29423;BMP180;16399;51.686;8.684;2023-04-06T14:55:58;99791.00;;;17.10
29423;BMP180;16399;51.686;8.684;2023-04-06T14:59:00;99788.00;;;17.20
29423;BMP180;16399;51.686;8.684;2023-04-06T15:02:05;99788.00;;;17.10
29423;BMP180;16399;51.686;8.684;2023-04-06T15:05:08;99788.00;;;17.10
29423;BMP180;16399;51.686;8.684;2023-04-06T15:08:12;99793.00;;;16.90
29423;BMP180;16399;51.686;8.684;2023-04-06T15:11:16;99795.00;;;16.80
29423;BMP180;16399;51.686;8.684;2023-04-06T15:14:18;99790.00;;;16.60
29423;BMP180;16399;51.686;8.684;2023-04-06T15:17:20;99797.00;;;16.30
29423;BMP180;16399;51.686;8.684;2023-04-06T15:20:23;99796.00;;;16.10
29423;BMP180;16399;51.686;8.684;2023-04-06T15:23:26;99805.00;;;15.90
29423;BMP180;16399;51.686;8.684;2023-04-06T15:26:30;99806.00;;;15.60
29423;BMP180;16399;51.686;8.684;2023-04-06T15:29:32;99795.00;;;15.50
29423;BMP180;16399;51.686;8.684;2023-04-06T15:32:34;99809.00;;;15.30
29423;BMP180;16399;51.686;8.684;2023-04-06T15:35:36;99801.00;;;15.10
29423;BMP180;16399;51.686;8.684;2023-04-06T15:38:40;99807.00;;;15.00
29423;BMP180;16399;51.686;8.684;2023-04-06T15:41:43;99804.00;;;15.00
29423;BMP180;16399;51.686;8.684;2023-04-06T15:44:46;99805.00;;;15.00
29423;BMP180;16399;51.686;8.684;2023-04-06T15:47:48;99787.00;;;14.90
29423;BMP180;16399;51.686;8.684;2023-04-06T15:50:50;99806.00;;;14.90
29423;BMP180;16399;51.686;8.684;2023-04-06T15:53:53;99800.00;;;14.80
29423;BMP180;16399;51.686;8.684;2023-04-06T15:56:55;99801.00;;;14.80
29423;BMP180;16399;51.686;8.684;2023-04-06T15:59:58;99802.00;;;14.70
29423;BMP180;16399;51.686;8.684;2023-04-06T16:03:01;99801.00;;;14.70
29423;BMP180;16399;51.686;8.684;2023-04-06T16:06:03;99801.00;;;14.60
29423;BMP180;16399;51.686;8.684;2023-04-06T16:09:05;99802.00;;;14.60
29423;BMP180;16399;51.686;8.684;2023-04-06T16:12:08;99801.00;;;14.60
29423;BMP180;16399;51.686;8.684;2023-04-06T16:15:10;99803.00;;;14.60
29423;BMP180;16399;51.686;8.684;2023-04-06T16:18:13;99802.00;;;14.60
29423;BMP180;16399;51.686;8.684;2023-04-06T16:21:16;99806.00;;;14.50
29423;BMP180;16399;51.686;8.684;2023-04-06T16:24:18;99803.00;;;14.50
29423;BMP180;16399;51.686;8.684;2023-04-06T16:27:21;99805.00;;;14.40
29423;BMP180;16399;51.686;8.684;2023-04-06T16:30:23;99809.00;;;14.40
29423;BMP180;16399;51.686;8.684;2023-04-06T16:33:26;99796.00;;;14.30
29423;BMP180;16399;51.686;8.684;2023-04-06T16:36:29;99797.00;;;14.30
29423;BMP180;16399;51.686;8.684;2023-04-06T16:39:33;99799.00;;;14.20
29423;BMP180;16399;51.686;8.684;2023-04-06T16:42:36;99799.00;;;14.20
29423;BMP180;16399;51.686;8.684;2023-04-06T16:45:38;99802.00;;;14.20
29423;BMP180;16399;51.686;8.684;2023-04-06T16:48:41;99802.00;;;14.20
29423;BMP180;16399;51.686;8.684;2023-04-06T16:51:43;99797.00;;;14.10
29423;BMP180;16399;51.686;8.684;2023-04-06T16:54:46;99795.00;;;14.10
29423;BMP180;16399;51.686;8.684;2023-04-06T16:57:48;99803.00;;;14.00
29423;BMP180;16399;51.686;8.684;2023-04-06T17:00:50;99799.00;;;14.00
29423;BMP180;16399;51.686;8.684;2023-04-06T17:03:53;99803.00;;;13.90
29423;BMP180;16399;51.686;8.684;2023-04-06T17:06:56;99804.00;;;13.80
29423;BMP180;16399;51.686;8.684;2023-04-06T17:10:00;99806.00;;;13.70
29423;BMP180;16399;51.686;8.684;2023-04-06T17:13:02;99804.00;;;13.60
29423;BMP180;16399;51.686;8.684;2023-04-06T17:16:07;99797.00;;;13.60
29423;BMP180;16399;51.686;8.684;2023-04-06T17:19:09;99803.00;;;13.50
29423;BMP180;16399;51.686;8.684;2023-04-06T17:22:11;99809.00;;;13.40
29423;BMP180;16399;51.686;8.684;2023-04-06T17:25:14;99808.00;;;13.30
29423;BMP180;16399;51.686;8.684;2023-04-06T17:28:17;99817.00;;;13.20
29423;BMP180;16399;51.686;8.684;2023-04-06T17:31:19;99825.00;;;13.10
29423;BMP180;16399;51.686;8.684;2023-04-06T17:34:22;99829.00;;;13.00
29423;BMP180;16399;51.686;8.684;2023-04-06T17:37:24;99835.00;;;12.90